createdAt,value
2018-07-10T00:02:33.369Z,24.60
2018-07-10T00:05:44.316Z,24.60
2018-07-10T00:10:27.097Z,24.60
2018-07-10T00:12:57.300Z,24.50
2018-07-10T00:15:27.760Z,24.50
2018-07-10T00:17:57.217Z,24.50
2018-07-10T00:20:28.201Z,24.50
2018-07-10T00:22:57.845Z,24.50
2018-07-10T00:25:27.725Z,24.50
2018-07-10T00:27:57.673Z,24.40
2018-07-10T00:30:27.444Z,24.30
2018-07-10T00:32:57.336Z,24.30
2018-07-10T00:35:27.229Z,24.40
2018-07-10T00:38:08.050Z,24.40
2018-07-10T00:40:38.129Z,24.40
2018-07-10T00:43:10.953Z,24.50
2018-07-10T00:45:42.095Z,24.40
2018-07-10T00:48:11.773Z,24.40
2018-07-10T00:50:41.480Z,24.40
2018-07-10T00:53:11.448Z,24.40
2018-07-10T00:55:41.057Z,24.40
2018-07-10T00:58:10.944Z,24.40
2018-07-10T01:00:40.554Z,24.40
2018-07-10T01:03:10.541Z,24.30
2018-07-10T01:05:40.397Z,24.30
2018-07-10T01:08:09.969Z,24.30
2018-07-10T01:10:40.554Z,24.30
2018-07-10T01:13:10.797Z,24.30
2018-07-10T01:15:40.716Z,24.30
2018-07-10T01:18:10.648Z,24.30
2018-07-10T01:20:40.359Z,24.20
2018-07-10T01:23:10.434Z,24.20
2018-07-10T01:25:40.909Z,24.20
2018-07-10T01:28:11.026Z,24.20
2018-07-10T01:30:41.153Z,24.10
2018-07-10T01:33:10.665Z,24.10
2018-07-10T01:35:41.077Z,24.00
2018-07-10T01:38:11.408Z,23.90
2018-07-10T01:40:41.981Z,23.90
2018-07-10T01:43:12.597Z,23.90
2018-07-10T01:45:42.444Z,23.80
2018-07-10T01:48:12.510Z,23.70
2018-07-10T01:50:43.296Z,23.70
2018-07-10T01:53:13.093Z,23.70
2018-07-10T01:55:42.645Z,23.60
2018-07-10T01:58:12.562Z,23.60
2018-07-10T02:00:44.360Z,23.60
2018-07-10T02:03:15.071Z,23.60
2018-07-10T02:05:45.369Z,23.60
2018-07-10T02:08:16.044Z,23.70
2018-07-10T02:10:45.549Z,23.60
2018-07-10T02:13:15.235Z,23.60
2018-07-10T02:15:44.729Z,23.60
2018-07-10T02:18:14.862Z,23.50
2018-07-10T02:21:00.981Z,23.50
2018-07-10T02:23:38.026Z,23.50
2018-07-10T02:26:11.253Z,23.50
2018-07-10T02:28:41.548Z,23.50
2018-07-10T02:31:11.638Z,23.50
2018-07-10T02:33:41.308Z,23.50
2018-07-10T02:36:11.161Z,23.50
2018-07-10T02:38:45.941Z,23.60
2018-07-10T02:41:19.070Z,23.60
2018-07-10T02:43:53.714Z,23.60
2018-07-10T02:46:23.566Z,23.60
2018-07-10T02:48:54.645Z,23.60
2018-07-10T02:51:25.053Z,23.60
2018-07-10T02:53:55.497Z,23.50
2018-07-10T02:56:25.470Z,23.50
2018-07-10T02:58:56.126Z,23.60
2018-07-10T03:01:26.261Z,23.60
2018-07-10T03:03:56.114Z,23.60
2018-07-10T03:06:26.676Z,23.60
2018-07-10T03:08:56.722Z,23.60
2018-07-10T03:11:26.841Z,23.60
2018-07-10T03:13:57.056Z,23.70
2018-07-10T03:16:26.665Z,23.60
2018-07-10T03:18:56.237Z,23.70
2018-07-10T03:21:26.633Z,23.70
2018-07-10T03:23:56.764Z,23.60
2018-07-10T03:26:26.598Z,23.50
2018-07-10T03:28:57.045Z,23.50
2018-07-10T03:31:27.026Z,23.40
2018-07-10T03:33:57.046Z,23.40
2018-07-10T03:36:26.951Z,23.40
2018-07-10T03:38:56.980Z,23.50
2018-07-10T03:41:26.749Z,23.50
2018-07-10T03:43:56.689Z,23.50
2018-07-10T03:46:26.564Z,23.50
2018-07-10T03:48:57.496Z,23.40
2018-07-10T03:53:56.889Z,23.40
2018-07-10T03:56:26.850Z,23.40
2018-07-10T03:58:58.307Z,23.50
2018-07-10T04:01:33.459Z,23.40
2018-07-10T04:04:03.090Z,23.40
2018-07-10T04:06:33.074Z,23.30
2018-07-10T04:09:04.014Z,23.30
2018-07-10T04:11:34.042Z,23.30
2018-07-10T04:14:03.881Z,23.30
2018-07-10T04:16:33.540Z,23.20
2018-07-10T04:19:03.352Z,23.10
2018-07-10T04:21:34.853Z,23.10
2018-07-10T04:24:10.729Z,23.10
2018-07-10T04:26:49.509Z,23.10
2018-07-10T04:29:26.808Z,23.20
2018-07-10T04:32:00.395Z,23.40
2018-07-10T04:34:32.713Z,23.50
2018-07-10T04:37:09.825Z,23.60
2018-07-10T04:39:43.101Z,23.70
2018-07-10T04:42:22.074Z,23.70
2018-07-10T04:45:08.058Z,23.80
2018-07-10T04:47:43.621Z,23.90
2018-07-10T04:50:24.843Z,24.00
2018-07-10T04:53:09.756Z,24.10
2018-07-10T04:55:42.006Z,24.20
2018-07-10T04:58:18.340Z,24.30
2018-07-10T05:00:55.741Z,24.40
2018-07-10T05:03:27.433Z,24.60
2018-07-10T05:05:57.776Z,24.70
2018-07-10T05:08:28.044Z,24.80
2018-07-10T05:10:57.550Z,24.80
2018-07-10T05:13:27.989Z,24.90
2018-07-10T05:16:04.709Z,24.90
2018-07-10T05:18:35.760Z,25.00
2018-07-10T05:21:13.768Z,25.10
2018-07-10T05:23:44.117Z,25.10
2018-07-10T05:26:16.245Z,25.10
2018-07-10T05:28:47.207Z,25.10
2018-07-10T05:31:18.249Z,25.30
2018-07-10T05:33:51.527Z,25.30
2018-07-10T05:36:24.753Z,25.50
2018-07-10T05:39:05.957Z,25.60
2018-07-10T05:41:44.781Z,25.80
2018-07-10T05:44:21.150Z,25.90
2018-07-10T05:46:51.072Z,25.90
2018-07-10T05:49:21.334Z,25.90
2018-07-10T05:51:52.579Z,26.10
2018-07-10T05:54:23.142Z,26.30
2018-07-10T05:56:53.172Z,26.30
2018-07-10T05:59:23.482Z,26.40
2018-07-10T06:04:23.424Z,26.70
2018-07-10T06:06:54.454Z,26.90
2018-07-10T06:09:24.291Z,27.00
2018-07-10T06:11:54.677Z,27.20
2018-07-10T06:14:24.910Z,27.30
2018-07-10T06:16:54.698Z,27.50
2018-07-10T06:19:24.830Z,27.50
2018-07-10T06:21:54.949Z,27.50
2018-07-10T06:24:38.195Z,27.60
2018-07-10T06:27:11.766Z,27.70
2018-07-10T06:30:05.056Z,27.80
2018-07-10T06:32:58.799Z,27.70
2018-07-10T06:35:40.182Z,27.60
2018-07-10T06:38:19.756Z,27.80
2018-07-10T06:40:51.528Z,27.90
2018-07-10T06:43:53.995Z,27.90
2018-07-10T06:46:29.052Z,28.10
2018-07-10T06:49:07.282Z,28.20
2018-07-10T06:51:38.001Z,28.20
2018-07-10T06:54:07.774Z,28.30
2018-07-10T06:56:38.708Z,28.40
2018-07-10T06:59:09.065Z,28.30
2018-07-10T07:01:42.210Z,28.20
2018-07-10T07:04:12.308Z,28.30
2018-07-10T07:06:41.797Z,28.40
2018-07-10T07:09:13.809Z,28.60
2018-07-10T07:11:44.757Z,28.60
2018-07-10T07:14:14.270Z,28.60
2018-07-10T07:16:44.203Z,28.70
2018-07-10T07:19:13.929Z,28.90
2018-07-10T07:21:45.248Z,29.00
2018-07-10T07:24:15.373Z,29.10
2018-07-10T07:29:15.398Z,29.10
2018-07-10T07:31:45.293Z,29.20
2018-07-10T07:34:15.704Z,29.30
2018-07-10T07:36:45.453Z,28.90
2018-07-10T07:39:15.637Z,29.00
2018-07-10T07:41:46.161Z,29.00
2018-07-10T07:44:16.576Z,29.10
2018-07-10T07:46:47.544Z,29.10
2018-07-10T07:49:18.506Z,29.30
2018-07-10T07:51:48.327Z,29.40
2018-07-10T07:54:18.278Z,29.30
2018-07-10T07:56:48.572Z,29.40
2018-07-10T07:59:18.985Z,29.60
2018-07-10T08:01:50.847Z,29.80
2018-07-10T08:04:21.175Z,29.60
2018-07-10T08:06:53.468Z,29.60
2018-07-10T08:09:23.296Z,29.80
2018-07-10T08:11:53.337Z,30.00
2018-07-10T08:14:23.914Z,30.10
2018-07-10T08:16:54.704Z,30.30
2018-07-10T08:19:25.415Z,30.30
2018-07-10T08:21:56.298Z,30.30
2018-07-10T08:24:27.319Z,30.10
2018-07-10T08:26:59.304Z,30.00
2018-07-10T08:29:30.651Z,30.00
2018-07-10T08:32:00.971Z,30.20
2018-07-10T08:34:31.805Z,30.50
2018-07-10T08:37:02.509Z,30.20
2018-07-10T08:39:32.477Z,30.10
2018-07-10T08:42:07.060Z,30.00
2018-07-10T08:44:37.644Z,29.70
2018-07-10T08:47:10.250Z,29.90
2018-07-10T08:49:41.858Z,30.00
2018-07-10T08:52:13.741Z,30.30
2018-07-10T08:54:44.233Z,29.90
2018-07-10T08:57:14.862Z,29.30
2018-07-10T08:59:45.663Z,29.00
2018-07-10T09:02:15.517Z,29.20
2018-07-10T09:04:45.564Z,29.60
2018-07-10T09:07:15.602Z,29.90
2018-07-10T09:09:46.115Z,29.90
2018-07-10T09:12:15.876Z,29.90
2018-07-10T09:14:46.275Z,30.10
2018-07-10T09:17:16.565Z,30.30
2018-07-10T09:19:46.401Z,30.30
2018-07-10T09:22:16.312Z,30.20
2018-07-10T09:24:52.530Z,29.80
2018-07-10T09:27:49.503Z,29.80
2018-07-10T09:30:19.704Z,29.90
2018-07-10T09:32:49.780Z,30.30
2018-07-10T09:35:20.153Z,30.40
2018-07-10T09:37:49.982Z,30.30
2018-07-10T09:40:20.708Z,30.10
2018-07-10T09:42:57.794Z,29.70
2018-07-10T09:45:29.555Z,29.30
2018-07-10T09:50:29.466Z,29.30
2018-07-10T09:52:59.811Z,29.40
2018-07-10T09:55:29.777Z,29.20
2018-07-10T09:58:00.724Z,29.60
2018-07-10T10:00:36.173Z,29.90
2018-07-10T13:45:01.728Z,31.00
2018-07-10T13:50:01.246Z,31.00
2018-07-10T13:52:31.185Z,31.30
2018-07-10T13:55:00.989Z,31.10
2018-07-10T13:57:31.099Z,30.80
2018-07-10T14:00:02.053Z,30.80
2018-07-10T14:02:35.154Z,31.60
2018-07-10T14:05:04.999Z,31.90
2018-07-10T14:07:35.013Z,31.60
2018-07-10T14:10:05.084Z,31.30
2018-07-10T14:12:35.390Z,31.20
2018-07-10T14:15:05.819Z,30.30
2018-07-10T14:17:36.649Z,30.10
2018-07-10T14:20:06.529Z,30.30
2018-07-10T14:22:37.285Z,30.20
2018-07-10T14:25:06.949Z,30.50
2018-07-10T14:27:37.329Z,30.90
2018-07-10T14:30:07.796Z,30.50
2018-07-10T14:32:38.316Z,30.10
2018-07-10T14:35:08.558Z,30.00
2018-07-10T14:37:38.512Z,30.40
2018-07-10T14:40:08.408Z,30.20
2018-07-10T14:42:38.946Z,29.70
2018-07-10T14:45:11.756Z,29.60
2018-07-10T14:47:44.825Z,29.60
2018-07-10T14:50:15.143Z,29.50
2018-07-10T14:52:45.454Z,29.50
2018-07-10T14:55:16.081Z,29.50
2018-07-10T14:57:46.332Z,29.60
2018-07-10T15:00:16.382Z,29.70
2018-07-10T15:02:46.856Z,29.60
2018-07-10T15:05:17.693Z,29.30
2018-07-10T15:07:47.728Z,29.00
2018-07-10T15:10:21.872Z,29.00
2018-07-10T15:17:56.722Z,28.40
2018-07-10T15:20:26.839Z,28.70
2018-07-10T15:22:57.176Z,28.70
2018-07-10T15:25:32.170Z,28.80
2018-07-10T15:30:31.532Z,29.00
2018-07-10T15:33:15.965Z,29.20
2018-07-10T15:35:57.018Z,29.00
2018-07-10T15:38:27.103Z,28.90
2018-07-10T15:40:57.201Z,28.90
2018-07-10T15:43:39.015Z,28.90
2018-07-10T15:46:11.766Z,28.90
2018-07-10T15:48:41.870Z,28.60
2018-07-10T15:51:11.569Z,28.60
2018-07-10T15:53:42.333Z,28.50
2018-07-10T15:58:42.129Z,28.30
2018-07-10T16:01:12.046Z,28.50
2018-07-10T16:03:41.873Z,28.10
2018-07-10T16:06:12.107Z,27.90
2018-07-10T16:08:42.918Z,28.00
2018-07-10T16:11:12.917Z,27.90
2018-07-10T16:13:43.627Z,28.10
2018-07-10T16:16:16.950Z,28.40
2018-07-10T16:18:51.092Z,28.20
2018-07-10T16:23:55.381Z,28.50
2018-07-10T16:26:25.775Z,28.50
2018-07-10T16:28:58.864Z,28.50
2018-07-10T16:31:29.495Z,28.50
2018-07-10T16:36:28.617Z,28.40
2018-07-10T16:38:58.537Z,28.30
2018-07-10T16:41:33.749Z,28.30
2018-07-10T16:44:07.361Z,28.30
2018-07-10T16:49:20.504Z,28.50
2018-07-10T16:52:30.801Z,28.40
2018-07-10T16:55:00.889Z,28.30
2018-07-10T16:57:31.230Z,28.10
2018-07-10T17:00:01.909Z,28.00
2018-07-10T17:02:32.021Z,27.80
2018-07-10T17:05:02.235Z,27.70
2018-07-10T17:07:32.365Z,27.70
2018-07-10T17:10:03.654Z,27.70
2018-07-10T17:15:03.131Z,27.70
2018-07-10T17:17:33.135Z,27.60
2018-07-10T17:20:03.194Z,27.60
2018-07-10T17:22:33.926Z,27.50
2018-07-10T17:25:03.859Z,27.50
2018-07-10T17:27:35.764Z,27.40
2018-07-10T17:30:07.075Z,27.30
2018-07-10T17:32:37.877Z,27.20
2018-07-10T17:35:08.047Z,27.20
2018-07-10T17:37:45.174Z,27.30
2018-07-10T17:40:15.800Z,27.10
2018-07-10T17:42:46.939Z,27.10
2018-07-10T17:45:23.853Z,26.90
2018-07-10T17:47:54.467Z,26.90
2018-07-10T17:50:25.318Z,26.90
2018-07-10T17:52:54.994Z,26.70
2018-07-10T17:55:24.749Z,26.70
2018-07-10T17:58:00.505Z,26.90
2018-07-10T18:00:31.846Z,27.00
2018-07-10T18:03:01.838Z,27.00
2018-07-10T18:05:31.943Z,27.00
2018-07-10T18:08:02.007Z,26.90
2018-07-10T18:10:32.301Z,26.90
2018-07-10T18:13:02.348Z,26.80
2018-07-10T18:15:32.772Z,26.70
2018-07-10T18:20:32.509Z,26.60
2018-07-10T18:23:02.808Z,26.60
2018-07-10T18:25:32.707Z,26.50
2018-07-10T18:28:03.197Z,26.50
2018-07-10T18:30:33.611Z,26.50
2018-07-10T18:33:03.464Z,26.50
2018-07-10T18:35:33.227Z,26.40
2018-07-10T18:38:03.133Z,26.30
2018-07-10T18:40:33.516Z,26.30
2018-07-10T18:43:03.305Z,26.20
2018-07-10T18:45:33.172Z,26.20
2018-07-10T18:48:03.462Z,26.20
2018-07-10T18:50:33.342Z,26.10
2018-07-10T18:53:03.719Z,26.10
2018-07-10T18:55:34.177Z,26.10
2018-07-10T19:00:56.942Z,26.10
2018-07-10T19:03:29.893Z,26.10
2018-07-10T19:06:08.977Z,26.10
2018-07-10T19:08:41.392Z,26.10
2018-07-10T19:11:14.484Z,26.00
2018-07-10T19:13:45.897Z,25.90
2018-07-10T19:16:15.982Z,26.00
2018-07-10T19:18:45.984Z,26.00
2018-07-10T19:21:38.460Z,26.00
2018-07-10T19:24:13.572Z,26.00
2018-07-10T19:26:43.732Z,25.90
2018-07-10T19:29:24.062Z,25.80
2018-07-10T19:31:54.060Z,25.90
2018-07-10T19:34:24.949Z,25.90
2018-07-10T19:36:55.852Z,25.80
2018-07-10T19:39:25.685Z,25.80
2018-07-10T19:44:25.522Z,25.90
2018-07-10T19:46:55.698Z,25.80
2018-07-10T19:49:27.115Z,25.70
2018-07-10T19:51:57.836Z,25.60
2018-07-10T19:54:27.936Z,25.60
2018-07-10T19:56:58.171Z,25.60
2018-07-10T19:59:28.742Z,25.60
2018-07-10T20:02:01.593Z,25.50
2018-07-10T20:05:08.145Z,25.60
2018-07-10T20:07:52.277Z,25.60
2018-07-10T20:10:42.543Z,25.60
2018-07-10T20:13:16.599Z,25.30
2018-07-10T20:15:57.971Z,25.20
2018-07-10T20:20:36.325Z,25.30
2018-07-10T20:23:18.405Z,25.30
2018-07-10T20:26:07.070Z,25.30
2018-07-10T20:29:05.836Z,25.30
2018-07-10T20:31:43.200Z,25.30
2018-07-10T20:34:20.341Z,25.20
2018-07-10T20:36:55.547Z,25.20
2018-07-10T20:39:35.210Z,25.30
2018-07-10T20:42:05.916Z,25.20
2018-07-10T20:44:41.637Z,25.10
2018-07-10T20:47:21.867Z,25.10
2018-07-10T20:50:01.750Z,25.20
2018-07-10T20:54:44.923Z,25.30
2018-07-10T20:57:41.517Z,25.30
2018-07-10T21:00:13.869Z,25.30
2018-07-10T21:02:51.105Z,25.30
2018-07-10T21:05:29.502Z,25.20
2018-07-10T21:08:07.210Z,25.20
2018-07-10T21:10:49.937Z,25.10
2018-07-10T21:19:36.174Z,25.00
2018-07-10T21:22:11.477Z,25.00
2018-07-10T21:24:48.293Z,25.10
2018-07-10T21:29:28.568Z,25.00
2018-07-10T21:32:03.369Z,25.00
2018-07-10T21:34:40.304Z,24.90
2018-07-10T21:37:19.624Z,24.90
2018-07-10T21:40:07.987Z,24.90
2018-07-10T21:43:42.854Z,24.90
2018-07-10T21:46:21.501Z,24.90
2018-07-10T21:49:19.056Z,24.90
2018-07-10T21:51:51.295Z,24.90
2018-07-10T21:54:21.276Z,24.90
2018-07-10T21:56:51.385Z,24.90
2018-07-10T21:59:22.377Z,24.90
2018-07-10T22:02:13.614Z,24.90
2018-07-10T22:04:43.440Z,24.80
2018-07-10T22:07:14.389Z,24.80
2018-07-10T22:09:44.760Z,24.80
2018-07-10T22:12:16.214Z,24.80
2018-07-10T22:14:46.509Z,24.70
2018-07-10T22:17:19.070Z,24.70
2018-07-10T22:19:50.061Z,24.70
2018-07-10T22:22:20.497Z,24.70
2018-07-10T22:24:51.628Z,24.70
2018-07-10T22:27:22.285Z,24.80
2018-07-10T22:30:00.805Z,24.80
2018-07-10T22:33:05.669Z,24.80
2018-07-10T22:35:35.188Z,24.80
2018-07-10T22:38:05.363Z,24.80
2018-07-10T22:40:35.930Z,24.80
2018-07-10T22:43:06.449Z,24.70
2018-07-10T22:45:36.392Z,24.70
2018-07-10T22:48:05.997Z,24.70
2018-07-10T22:50:35.878Z,24.70
2018-07-10T22:53:05.853Z,24.80
2018-07-10T22:55:35.417Z,24.70
2018-07-10T22:58:09.281Z,24.70
2018-07-10T23:00:40.436Z,24.70
2018-07-10T23:03:18.133Z,24.70
2018-07-10T23:05:49.772Z,24.60
2018-07-10T23:08:22.073Z,24.60
2018-07-10T23:10:51.785Z,24.60
2018-07-10T23:13:21.696Z,24.50
2018-07-10T23:15:51.329Z,24.50
2018-07-10T23:18:21.345Z,24.50
2018-07-10T23:20:51.196Z,24.50
2018-07-10T23:23:22.180Z,24.50
2018-07-10T23:25:52.634Z,24.50
2018-07-10T23:28:22.437Z,24.50
2018-07-10T23:30:52.685Z,24.50
2018-07-10T23:33:24.974Z,24.50
2018-07-10T23:35:57.618Z,24.40
2018-07-10T23:38:38.477Z,24.40
2018-07-10T23:41:16.888Z,24.50
2018-07-10T23:43:48.980Z,24.40
2018-07-10T23:47:35.137Z,24.40
2018-07-10T23:50:09.720Z,24.40
2018-07-10T23:52:53.805Z,24.30
2018-07-10T23:55:23.922Z,24.30
2018-07-10T23:57:53.780Z,24.30
